createdAt,value
2018-05-04T00:00:55.934Z,90.55
2018-05-04T00:01:34.924Z,90.08
2018-05-04T00:02:34.912Z,89.60
2018-05-04T00:03:34.901Z,89.79
2018-05-04T00:04:34.892Z,89.89
2018-05-04T00:05:34.878Z,89.89
2018-05-04T00:06:55.872Z,89.60
2018-05-04T00:07:34.853Z,89.69
2018-05-04T00:08:34.843Z,89.69
2018-05-04T00:09:34.832Z,89.60
2018-05-04T00:10:34.828Z,89.89
2018-05-04T00:11:34.819Z,89.60
2018-05-04T00:12:55.816Z,90.26
2018-05-04T00:13:34.790Z,89.31
2018-05-04T00:14:34.779Z,89.69
2018-05-04T00:15:34.761Z,90.08
2018-05-04T00:16:34.755Z,90.08
2018-05-04T00:17:34.744Z,90.64
2018-05-04T00:18:55.742Z,90.74
2018-05-04T00:19:34.723Z,91.03
2018-05-04T00:20:34.704Z,91.13
2018-05-04T00:21:34.714Z,91.50
2018-05-04T00:22:34.680Z,91.13
2018-05-04T00:23:34.712Z,90.93
2018-05-04T00:24:55.677Z,90.93
2018-05-04T00:25:34.638Z,90.45
2018-05-04T00:26:34.633Z,90.36
2018-05-04T00:27:34.627Z,90.36
2018-05-04T00:28:34.612Z,90.45
2018-05-04T00:29:34.606Z,90.08
2018-05-04T00:30:55.596Z,89.40
2018-05-04T00:31:34.584Z,89.50
2018-05-04T00:32:34.573Z,89.89
2018-05-04T00:33:34.549Z,89.98
2018-05-04T00:34:34.544Z,89.69
2018-05-04T00:35:34.541Z,89.89
2018-05-04T00:36:55.520Z,89.60
2018-05-04T00:37:34.505Z,89.69
2018-05-04T00:38:34.499Z,89.60
2018-05-04T00:39:34.489Z,89.60
2018-05-04T00:40:34.471Z,90.45
2018-05-04T00:41:34.458Z,89.69
2018-05-04T00:42:55.478Z,90.17
2018-05-04T00:43:34.445Z,89.98
2018-05-04T00:44:34.425Z,89.98
2018-05-04T00:45:34.417Z,89.98
2018-05-04T00:46:34.401Z,90.17
2018-05-04T00:47:34.389Z,89.69
2018-05-04T00:48:55.388Z,89.50
2018-05-04T00:49:34.376Z,89.79
2018-05-04T00:50:34.354Z,90.08
2018-05-04T00:51:34.354Z,90.55
2018-05-04T00:52:34.332Z,90.84
2018-05-04T00:53:34.326Z,90.45
2018-05-04T00:54:55.316Z,91.03
2018-05-04T00:55:34.316Z,91.41
2018-05-04T00:56:34.289Z,90.36
2018-05-04T00:57:34.279Z,90.45
2018-05-04T00:58:34.259Z,90.17
2018-05-04T00:59:34.251Z,90.08
2018-05-04T01:00:55.245Z,89.98
2018-05-04T01:01:34.236Z,90.17
2018-05-04T01:02:34.219Z,90.08
2018-05-04T01:03:34.209Z,90.55
2018-05-04T01:04:34.198Z,90.26
2018-05-04T01:05:34.189Z,90.26
2018-05-04T01:06:55.179Z,89.98
2018-05-04T01:07:34.166Z,89.40
2018-05-04T01:08:34.142Z,90.45
2018-05-04T01:09:34.142Z,90.74
2018-05-04T01:10:34.128Z,90.64
2018-05-04T01:11:34.111Z,91.03
2018-05-04T01:12:55.103Z,90.93
2018-05-04T01:13:34.088Z,91.41
2018-05-04T01:14:34.073Z,91.46
2018-05-04T01:15:34.078Z,91.27
2018-05-04T01:16:34.060Z,91.27
2018-05-04T01:17:34.038Z,90.98
2018-05-04T01:18:55.036Z,91.27
2018-05-04T01:19:34.022Z,91.08
2018-05-04T01:20:34.033Z,91.27
2018-05-04T01:21:33.996Z,91.08
2018-05-04T01:22:33.990Z,91.46
2018-05-04T01:23:33.979Z,91.79
2018-05-04T01:24:54.980Z,92.17
2018-05-04T01:25:33.958Z,92.03
2018-05-04T01:26:33.946Z,92.60
2018-05-04T01:27:33.925Z,92.69
2018-05-04T01:28:33.912Z,92.69
2018-05-04T01:29:33.908Z,92.69
2018-05-04T01:30:54.893Z,92.69
2018-05-04T01:31:33.878Z,92.69
2018-05-04T01:32:33.870Z,92.13
2018-05-04T01:33:33.902Z,91.84
2018-05-04T01:34:33.842Z,92.03
2018-05-04T01:35:33.828Z,92.27
2018-05-04T01:36:54.835Z,92.17
2018-05-04T01:37:33.810Z,91.60
2018-05-04T01:38:33.813Z,91.13
2018-05-04T01:39:33.791Z,90.60
2018-05-04T01:40:33.768Z,90.55
2018-05-04T01:41:33.772Z,90.36
2018-05-04T01:42:54.753Z,90.22
2018-05-04T01:43:33.745Z,90.79
2018-05-04T01:44:33.722Z,90.79
2018-05-04T01:45:33.724Z,90.41
2018-05-04T01:46:33.717Z,90.60
2018-05-04T01:47:33.691Z,90.84
2018-05-04T01:48:54.687Z,90.55
2018-05-04T01:49:33.670Z,90.70
2018-05-04T01:50:33.661Z,91.41
2018-05-04T01:51:33.650Z,90.74
2018-05-04T01:52:33.638Z,91.50
2018-05-04T01:53:33.624Z,91.03
2018-05-04T01:54:54.614Z,90.93
2018-05-04T01:55:33.597Z,91.31
2018-05-04T01:56:33.597Z,91.13
2018-05-04T01:57:33.578Z,91.13
2018-05-04T01:58:33.558Z,91.13
2018-05-04T01:59:33.548Z,91.22
2018-05-04T02:00:54.555Z,91.79
2018-05-04T02:01:33.535Z,91.31
2018-05-04T02:02:33.531Z,91.50
2018-05-04T02:03:33.505Z,91.22
2018-05-04T02:04:33.497Z,91.13
2018-05-04T02:05:33.482Z,91.13
2018-05-04T02:06:54.480Z,90.26
2018-05-04T02:07:33.462Z,89.60
2018-05-04T02:08:33.450Z,88.93
2018-05-04T02:09:33.430Z,88.84
2018-05-04T02:10:33.426Z,88.93
2018-05-04T02:11:33.418Z,89.03
2018-05-04T02:12:54.404Z,89.40
2018-05-04T02:13:33.404Z,89.79
2018-05-04T02:14:33.372Z,89.60
2018-05-04T02:15:33.393Z,89.40
2018-05-04T02:16:33.363Z,89.50
2018-05-04T02:17:33.353Z,89.60
2018-05-04T02:18:54.345Z,90.36
2018-05-04T02:19:33.334Z,90.55
2018-05-04T02:20:33.307Z,90.45
2018-05-04T02:21:33.297Z,90.64
2018-05-04T02:22:33.290Z,90.45
2018-05-04T02:23:33.279Z,90.45
2018-05-04T02:24:54.272Z,90.74
2018-05-04T02:25:33.250Z,90.84
2018-05-04T02:26:33.239Z,90.36
2018-05-04T02:27:33.224Z,90.45
2018-05-04T02:28:33.212Z,90.45
2018-05-04T02:29:33.209Z,90.45
2018-05-04T02:30:54.204Z,90.64
2018-05-04T02:31:33.176Z,90.74
2018-05-04T02:32:33.166Z,90.45
2018-05-04T02:33:33.161Z,90.45
2018-05-04T02:34:33.148Z,90.55
2018-05-04T02:35:33.144Z,90.36
2018-05-04T02:36:54.130Z,90.64
2018-05-04T02:37:33.115Z,90.64
2018-05-04T02:38:33.101Z,90.64
2018-05-04T02:39:33.095Z,90.74
2018-05-04T02:40:33.073Z,90.64
2018-05-04T02:41:33.067Z,90.45
2018-05-04T02:42:54.059Z,90.36
2018-05-04T02:43:33.040Z,90.55
2018-05-04T02:44:33.032Z,90.08
2018-05-04T02:45:33.026Z,90.26
2018-05-04T02:46:33.008Z,89.98
2018-05-04T02:47:32.996Z,90.08
2018-05-04T02:48:53.997Z,90.36
2018-05-04T02:49:32.979Z,90.08
2018-05-04T02:50:32.961Z,89.98
2018-05-04T02:51:32.949Z,89.79
2018-05-04T02:52:32.942Z,89.50
2018-05-04T02:53:32.926Z,89.79
2018-05-04T02:54:53.956Z,90.45
2018-05-04T02:55:32.925Z,90.36
2018-05-04T02:56:32.899Z,90.74
2018-05-04T02:57:32.881Z,90.45
2018-05-04T02:58:32.875Z,89.89
2018-05-04T02:59:32.855Z,90.26
2018-05-04T03:00:53.849Z,90.08
2018-05-04T03:01:32.852Z,90.08
2018-05-04T03:02:32.829Z,90.26
2018-05-04T03:03:32.823Z,90.64
2018-05-04T03:04:32.800Z,90.45
2018-05-04T03:05:32.781Z,91.31
2018-05-04T03:06:53.779Z,91.50
2018-05-04T03:07:32.786Z,91.22
2018-05-04T03:08:32.761Z,91.88
2018-05-04T03:09:32.742Z,91.74
2018-05-04T03:10:32.727Z,91.65
2018-05-04T03:11:32.719Z,91.46
2018-05-04T03:12:53.720Z,91.17
2018-05-04T03:13:32.708Z,91.08
2018-05-04T03:14:32.682Z,91.08
2018-05-04T03:15:32.676Z,91.17
2018-05-04T03:16:32.731Z,91.27
2018-05-04T03:17:32.653Z,91.65
2018-05-04T03:18:53.642Z,91.94
2018-05-04T03:19:32.625Z,92.03
2018-05-04T03:20:32.615Z,92.60
2018-05-04T03:21:32.603Z,92.89
2018-05-04T03:22:32.589Z,92.79
2018-05-04T03:23:32.577Z,92.79
2018-05-04T03:24:53.570Z,92.41
2018-05-04T03:25:32.555Z,92.79
2018-05-04T03:26:32.545Z,91.94
2018-05-04T03:27:32.530Z,92.69
2018-05-04T03:28:32.523Z,92.98
2018-05-04T03:29:32.512Z,92.13
2018-05-04T03:30:53.502Z,91.55
2018-05-04T03:31:32.488Z,91.41
2018-05-04T03:32:32.482Z,91.08
2018-05-04T03:33:32.464Z,91.65
2018-05-04T03:34:32.468Z,91.94
2018-05-04T03:35:32.437Z,92.03
2018-05-04T03:36:53.437Z,92.79
2018-05-04T03:37:32.415Z,92.60
2018-05-04T03:38:32.403Z,92.03
2018-05-04T03:39:32.385Z,92.69
2018-05-04T03:40:32.370Z,92.79
2018-05-04T03:41:32.369Z,92.89
2018-05-04T03:42:53.408Z,92.60
2018-05-04T03:43:32.337Z,92.69
2018-05-04T03:44:32.332Z,92.79
2018-05-04T03:45:32.317Z,92.69
2018-05-04T03:46:32.307Z,92.60
2018-05-04T03:47:32.298Z,92.89
2018-05-04T03:48:53.292Z,92.50
2018-05-04T03:49:32.277Z,92.89
2018-05-04T03:50:32.263Z,92.89
2018-05-04T03:51:32.246Z,92.60
2018-05-04T03:52:32.237Z,92.69
2018-05-04T03:53:32.218Z,92.50
2018-05-04T03:54:53.215Z,92.41
2018-05-04T03:55:32.198Z,93.08
2018-05-04T03:56:32.186Z,93.37
2018-05-04T03:57:32.178Z,92.79
2018-05-04T03:58:32.162Z,93.08
2018-05-04T03:59:32.152Z,92.98
2018-05-04T04:00:53.149Z,93.08
2018-05-04T04:01:32.128Z,92.98
2018-05-04T04:02:32.143Z,93.37
2018-05-04T04:03:32.110Z,93.27
2018-05-04T04:04:32.099Z,92.60
2018-05-04T04:05:32.076Z,92.89
2018-05-04T04:06:53.075Z,92.60
2018-05-04T04:07:32.058Z,92.89
2018-05-04T04:08:32.050Z,92.60
2018-05-04T04:09:32.039Z,92.79
2018-05-04T04:10:32.030Z,92.69
2018-05-04T04:11:32.017Z,92.60
2018-05-04T04:12:53.005Z,92.60
2018-05-04T04:13:31.988Z,92.79
2018-05-04T04:14:31.977Z,92.69
2018-05-04T04:15:31.961Z,92.89
2018-05-04T04:16:31.952Z,92.84
2018-05-04T04:17:31.943Z,92.27
2018-05-04T04:18:52.929Z,91.98
2018-05-04T04:19:31.929Z,92.03
2018-05-04T04:20:31.909Z,91.50
2018-05-04T04:21:31.893Z,91.98
2018-05-04T04:22:31.881Z,91.41
2018-05-04T04:23:31.869Z,91.31
2018-05-04T04:24:52.879Z,91.88
2018-05-04T04:25:31.858Z,91.79
2018-05-04T04:26:31.831Z,91.88
2018-05-04T04:27:31.816Z,91.31
2018-05-04T04:28:31.834Z,91.22
2018-05-04T04:29:31.802Z,91.03
2018-05-04T04:30:52.798Z,90.93
2018-05-04T04:31:31.776Z,91.31
2018-05-04T04:32:31.761Z,91.22
2018-05-04T04:33:31.748Z,91.31
2018-05-04T04:34:31.739Z,91.22
2018-05-04T04:35:31.725Z,91.31
2018-05-04T04:36:52.730Z,90.84
2018-05-04T04:37:31.704Z,91.22
2018-05-04T04:38:31.691Z,91.13
2018-05-04T04:39:31.681Z,91.31
2018-05-04T04:40:31.673Z,91.41
2018-05-04T04:41:31.664Z,91.22
2018-05-04T04:42:52.661Z,91.31
2018-05-04T04:43:31.637Z,91.03
2018-05-04T04:44:31.626Z,90.64
2018-05-04T04:45:31.620Z,91.41
2018-05-04T04:46:31.612Z,90.93
2018-05-04T04:47:31.591Z,91.22
2018-05-04T04:48:52.577Z,91.13
2018-05-04T04:49:31.563Z,91.13
2018-05-04T04:50:31.547Z,91.50
2018-05-04T04:51:31.547Z,90.74
2018-05-04T04:52:31.529Z,90.93
2018-05-04T04:53:31.515Z,91.50
2018-05-04T04:54:52.507Z,91.41
2018-05-04T04:55:31.493Z,91.98
2018-05-04T04:56:31.490Z,91.79
2018-05-04T04:57:31.470Z,91.88
2018-05-04T04:58:31.466Z,91.60
2018-05-04T04:59:31.450Z,91.69
2018-05-04T05:00:52.441Z,92.17
2018-05-04T05:01:31.425Z,91.69
2018-05-04T05:02:31.420Z,91.31
2018-05-04T05:03:31.399Z,91.31
2018-05-04T05:04:31.390Z,91.69
2018-05-04T05:05:31.378Z,91.03
2018-05-04T05:06:52.368Z,91.13
2018-05-04T05:07:31.372Z,91.50
2018-05-04T05:08:31.340Z,91.41
2018-05-04T05:09:31.334Z,91.13
2018-05-04T05:10:31.324Z,91.22
2018-05-04T05:11:31.308Z,91.41
2018-05-04T05:12:52.299Z,91.98
2018-05-04T05:13:31.381Z,92.36
2018-05-04T05:14:31.268Z,92.74
2018-05-04T05:15:31.258Z,91.98
2018-05-04T05:16:31.247Z,92.36
2018-05-04T05:17:31.241Z,92.36
2018-05-04T05:18:52.232Z,92.17
2018-05-04T05:19:31.225Z,91.88
2018-05-04T05:20:31.209Z,92.08
2018-05-04T05:21:31.199Z,91.69
2018-05-04T05:22:31.196Z,91.03
2018-05-04T05:23:31.182Z,91.31
2018-05-04T05:24:52.169Z,91.03
2018-05-04T05:25:31.146Z,91.13
2018-05-04T05:26:31.127Z,91.03
2018-05-04T05:27:31.120Z,90.93
2018-05-04T05:28:31.112Z,90.55
2018-05-04T05:29:31.144Z,91.50
2018-05-04T05:30:52.090Z,90.74
2018-05-04T05:31:31.072Z,90.36
2018-05-04T05:32:31.070Z,89.98
2018-05-04T05:33:31.054Z,90.08
2018-05-04T05:34:31.043Z,89.69
2018-05-04T05:35:31.030Z,90.45
2018-05-04T05:36:52.016Z,90.36
2018-05-04T05:37:31.021Z,89.98
2018-05-04T05:38:30.991Z,90.45
2018-05-04T05:39:30.981Z,90.26
2018-05-04T05:40:30.963Z,90.93
2018-05-04T05:41:30.957Z,91.41
2018-05-04T05:42:51.949Z,91.08
2018-05-04T05:43:30.929Z,90.79
2018-05-04T05:44:30.932Z,90.98
2018-05-04T05:45:30.910Z,91.13
2018-05-04T05:46:30.904Z,91.31
2018-05-04T05:47:30.895Z,91.31
2018-05-04T05:48:51.892Z,90.89
2018-05-04T05:49:30.864Z,90.64
2018-05-04T05:50:30.850Z,90.45
2018-05-04T05:51:30.842Z,90.17
2018-05-04T05:52:30.827Z,90.36
2018-05-04T05:53:30.815Z,90.45
2018-05-04T05:54:51.809Z,90.26
2018-05-04T05:55:30.796Z,90.45
2018-05-04T05:56:30.778Z,90.45
2018-05-04T05:57:30.775Z,90.26
2018-05-04T05:58:30.763Z,90.36
2018-05-04T05:59:30.741Z,90.84
2018-05-04T06:00:51.746Z,91.22
2018-05-04T06:01:30.730Z,91.41
2018-05-04T06:02:30.712Z,91.69
2018-05-04T06:03:30.698Z,91.60
2018-05-04T06:04:30.684Z,91.50
2018-05-04T06:05:30.679Z,91.13
2018-05-04T06:06:51.727Z,90.84
2018-05-04T06:07:30.655Z,90.93
2018-05-04T06:08:30.646Z,91.41
2018-05-04T06:09:30.636Z,91.13
2018-05-04T06:10:30.621Z,91.31
2018-05-04T06:11:30.604Z,91.03
2018-05-04T06:12:51.604Z,90.55
2018-05-04T06:13:30.586Z,90.55
2018-05-04T06:14:30.570Z,89.89
2018-05-04T06:15:30.566Z,89.98
2018-05-04T06:16:30.547Z,89.89
2018-05-04T06:17:30.537Z,90.08
2018-05-04T06:18:51.539Z,89.89
2018-05-04T06:19:30.509Z,89.60
2018-05-04T06:20:30.505Z,89.50
2018-05-04T06:21:30.485Z,89.22
2018-05-04T06:22:30.477Z,88.98
2018-05-04T06:23:30.466Z,89.22
2018-05-04T06:24:51.464Z,88.84
2018-05-04T06:25:30.448Z,88.88
2018-05-04T06:26:30.430Z,88.69
2018-05-04T06:27:30.431Z,88.88
2018-05-04T06:28:30.432Z,88.64
2018-05-04T06:29:30.397Z,89.12
2018-05-04T06:30:51.392Z,89.36
2018-05-04T06:31:30.378Z,90.03
2018-05-04T06:32:30.357Z,89.74
2018-05-04T06:33:30.345Z,89.07
2018-05-04T06:34:30.332Z,89.74
2018-05-04T06:35:30.342Z,89.36
2018-05-04T06:36:51.319Z,89.45
2018-05-04T06:37:30.304Z,89.17
2018-05-04T06:38:30.298Z,88.59
2018-05-04T06:39:30.278Z,88.69
2018-05-04T06:40:30.267Z,88.69
2018-05-04T06:41:30.255Z,88.88
2018-05-04T06:42:51.249Z,88.31
2018-05-04T06:43:30.249Z,88.40
2018-05-04T06:44:30.219Z,88.31
2018-05-04T06:45:30.217Z,87.54
2018-05-04T06:46:30.201Z,87.35
2018-05-04T06:47:30.189Z,87.16
2018-05-04T06:48:51.194Z,87.74
2018-05-04T06:49:30.174Z,87.83
2018-05-04T06:50:30.171Z,87.93
2018-05-04T06:51:30.144Z,87.54
2018-05-04T06:52:30.130Z,87.49
2018-05-04T06:53:30.126Z,86.69
2018-05-04T06:54:51.117Z,87.35
2018-05-04T06:55:30.098Z,87.40
2018-05-04T06:56:30.087Z,86.88
2018-05-04T06:57:30.088Z,87.16
2018-05-04T06:58:30.064Z,87.21
2018-05-04T06:59:30.114Z,87.30
2018-05-04T07:00:51.044Z,87.30
2018-05-04T07:01:30.033Z,87.21
2018-05-04T07:02:30.022Z,87.02
2018-05-04T07:03:30.008Z,87.21
2018-05-04T07:04:30.010Z,86.06
2018-05-04T07:05:29.988Z,85.68
2018-05-04T07:06:50.977Z,85.77
2018-05-04T07:07:29.964Z,85.49
2018-05-04T07:08:29.949Z,85.39
2018-05-04T07:09:29.942Z,85.77
2018-05-04T07:10:29.982Z,86.25
2018-05-04T07:11:29.920Z,85.58
2018-05-04T07:12:50.923Z,85.77
2018-05-04T07:13:29.901Z,85.97
2018-05-04T07:14:29.889Z,86.35
2018-05-04T07:15:29.872Z,85.97
2018-05-04T07:16:29.941Z,85.87
2018-05-04T07:17:29.851Z,86.16
2018-05-04T07:18:50.849Z,85.77
2018-05-04T07:19:29.828Z,86.25
2018-05-04T07:20:29.810Z,86.44
2018-05-04T07:21:29.805Z,86.73
2018-05-04T07:22:29.794Z,85.87
2018-05-04T07:23:29.776Z,85.49
2018-05-04T07:24:50.783Z,86.06
2018-05-04T07:25:29.762Z,86.82
2018-05-04T07:26:29.750Z,86.63
2018-05-04T07:27:29.732Z,86.35
2018-05-04T07:28:29.733Z,85.39
2018-05-04T07:29:29.723Z,84.67
2018-05-04T07:30:50.715Z,84.86
2018-05-04T07:31:29.715Z,84.39
2018-05-04T07:32:29.691Z,84.48
2018-05-04T07:33:29.674Z,84.16
2018-05-04T07:34:29.661Z,84.20
2018-05-04T07:35:29.660Z,84.39
2018-05-04T07:36:50.646Z,84.58
2018-05-04T07:37:29.635Z,84.39
2018-05-04T07:38:29.617Z,83.62
2018-05-04T07:39:29.612Z,83.43
2018-05-04T07:40:29.602Z,84.10
2018-05-04T07:41:29.582Z,83.62
2018-05-04T07:42:50.579Z,84.10
2018-05-04T07:43:29.561Z,83.81
2018-05-04T07:44:29.547Z,84.39
2018-05-04T07:45:29.564Z,84.10
2018-05-04T07:46:29.528Z,84.10
2018-05-04T07:47:29.517Z,84.29
2018-05-04T07:48:50.510Z,84.00
2018-05-04T07:49:29.496Z,83.72
2018-05-04T07:50:29.478Z,83.05
2018-05-04T07:51:29.471Z,82.00
2018-05-04T07:52:29.466Z,81.52
2018-05-04T07:53:29.449Z,82.09
2018-05-04T07:54:50.449Z,81.90
2018-05-04T07:55:29.436Z,80.76
2018-05-04T07:56:29.420Z,79.90
2018-05-04T07:57:29.410Z,80.28
2018-05-04T07:58:29.404Z,80.76
2018-05-04T07:59:29.401Z,81.04
2018-05-04T08:00:50.385Z,82.00
2018-05-04T08:01:29.360Z,82.09
2018-05-04T08:02:29.358Z,81.33
2018-05-04T08:03:29.346Z,80.47
2018-05-04T08:04:29.330Z,79.80
2018-05-04T08:05:29.318Z,80.28
2018-05-04T08:06:50.312Z,79.99
2018-05-04T08:07:29.291Z,79.43
2018-05-04T08:08:29.321Z,79.71
2018-05-04T08:09:29.280Z,79.27
2018-05-04T08:10:29.269Z,79.65
2018-05-04T08:11:29.246Z,79.65
2018-05-04T08:12:50.259Z,79.75
2018-05-04T08:13:29.229Z,79.46
2018-05-04T08:14:29.215Z,80.22
2018-05-04T08:15:29.207Z,79.94
2018-05-04T08:16:29.208Z,79.46
2018-05-04T08:17:29.196Z,79.08
2018-05-04T08:18:50.184Z,78.13
2018-05-04T08:19:29.170Z,78.60
2018-05-04T08:20:29.156Z,79.08
2018-05-04T08:21:29.142Z,78.89
2018-05-04T08:22:29.133Z,78.79
2018-05-04T08:23:29.124Z,79.27
2018-05-04T08:24:50.115Z,78.60
2018-05-04T08:25:29.099Z,78.41
2018-05-04T08:26:29.096Z,78.13
2018-05-04T08:27:29.136Z,78.13
2018-05-04T08:28:29.069Z,78.31
2018-05-04T08:29:29.064Z,78.03
2018-05-04T08:30:50.055Z,78.22
2018-05-04T08:31:29.033Z,78.03
2018-05-04T08:32:29.026Z,78.51
2018-05-04T08:33:29.016Z,78.79
2018-05-04T08:34:29.004Z,78.13
2018-05-04T08:35:29.016Z,77.65
2018-05-04T08:36:49.985Z,76.12
2018-05-04T08:37:28.976Z,76.50
2018-05-04T08:38:28.958Z,76.21
2018-05-04T08:39:28.954Z,76.50
2018-05-04T08:40:28.939Z,76.35
2018-05-04T08:41:28.925Z,77.59
2018-05-04T08:42:49.965Z,78.13
2018-05-04T08:43:28.908Z,76.98
2018-05-04T08:44:28.889Z,76.82
2018-05-04T08:45:28.885Z,76.73
2018-05-04T08:46:28.875Z,76.25
2018-05-04T08:47:28.853Z,76.73
2018-05-04T08:48:49.944Z,76.64
2018-05-04T08:49:28.846Z,76.73
2018-05-04T08:50:28.832Z,77.65
2018-05-04T08:51:28.827Z,79.02
2018-05-04T08:52:28.815Z,78.64
2018-05-04T08:53:28.820Z,78.74
2018-05-04T08:54:49.798Z,77.78
2018-05-04T08:55:28.780Z,77.59
2018-05-04T08:56:28.770Z,77.59
2018-05-04T08:57:28.797Z,77.50
2018-05-04T08:58:28.751Z,77.59
2018-05-04T08:59:28.735Z,77.21
2018-05-04T09:00:49.727Z,77.50
2018-05-04T09:01:28.720Z,76.45
2018-05-04T09:02:28.707Z,76.25
2018-05-04T09:03:28.693Z,75.78
2018-05-04T09:04:28.684Z,76.16
2018-05-04T09:05:28.818Z,75.87
2018-05-04T09:06:49.679Z,75.78
2018-05-04T09:07:28.662Z,76.06
2018-05-04T09:08:28.649Z,76.06
2018-05-04T09:09:28.645Z,75.30
2018-05-04T09:10:28.625Z,75.96
2018-05-04T09:11:28.608Z,76.45
2018-05-04T09:12:49.684Z,77.25
2018-05-04T09:13:28.592Z,76.77
2018-05-04T09:14:28.576Z,77.25
2018-05-04T09:15:28.565Z,78.07
2018-05-04T09:16:28.562Z,77.63
2018-05-04T09:17:28.553Z,75.62
2018-05-04T09:18:49.549Z,74.76
2018-05-04T09:19:28.536Z,74.28
2018-05-04T09:20:28.527Z,74.66
2018-05-04T09:21:28.505Z,76.00
2018-05-04T09:22:28.506Z,74.38
2018-05-04T09:23:28.487Z,73.71
2018-05-04T09:24:49.486Z,73.71
2018-05-04T09:25:28.471Z,74.13
2018-05-04T09:26:28.461Z,74.95
2018-05-04T09:27:28.456Z,75.95
2018-05-04T09:28:28.441Z,75.66
2018-05-04T09:29:28.438Z,76.14
2018-05-04T09:30:49.502Z,74.61
2018-05-04T09:31:28.407Z,74.61
2018-05-04T09:32:28.400Z,75.09
2018-05-04T09:33:28.392Z,73.84
2018-05-04T09:34:28.384Z,72.79
2018-05-04T09:35:28.369Z,73.84
2018-05-04T09:36:49.364Z,73.08
2018-05-04T09:37:28.352Z,72.88
2018-05-04T09:38:28.341Z,72.41
2018-05-04T09:39:28.332Z,72.69
2018-05-04T09:40:28.331Z,72.02
2018-05-04T09:41:28.338Z,71.58
2018-05-04T09:42:49.357Z,72.54
2018-05-04T09:43:28.376Z,73.02
2018-05-04T09:44:28.274Z,73.30
2018-05-04T09:45:28.266Z,74.16
2018-05-04T09:46:28.272Z,71.68
2018-05-04T09:47:28.246Z,72.16
2018-05-04T09:48:49.249Z,72.34
2018-05-04T09:49:28.245Z,71.87
2018-05-04T09:50:28.227Z,72.73
2018-05-04T09:51:28.231Z,72.73
2018-05-04T09:52:28.204Z,73.50
2018-05-04T09:53:28.193Z,71.77
2018-05-04T09:54:49.188Z,70.62
2018-05-04T09:55:28.174Z,70.53
2018-05-04T09:56:28.169Z,71.20
2018-05-04T09:57:28.159Z,71.68
2018-05-04T09:58:28.150Z,71.39
2018-05-04T09:59:28.136Z,71.11
2018-05-04T10:00:49.136Z,71.52
2018-05-04T10:01:28.119Z,71.91
2018-05-04T10:02:28.106Z,71.62
2018-05-04T10:03:28.118Z,71.42
2018-05-04T10:04:28.087Z,70.56
2018-05-04T10:05:28.081Z,70.66
2018-05-04T10:06:49.077Z,70.28
2018-05-04T10:07:28.063Z,70.28
2018-05-04T10:08:28.047Z,70.76
2018-05-04T10:09:28.042Z,70.56
2018-05-04T10:10:28.032Z,70.66
2018-05-04T10:11:28.022Z,70.47
2018-05-04T10:12:49.046Z,71.33
2018-05-04T10:13:28.010Z,73.24
2018-05-04T10:14:27.990Z,71.23
2018-05-04T10:15:27.984Z,71.23
2018-05-04T10:16:27.980Z,69.17
2018-05-04T10:17:27.969Z,69.54
2018-05-04T10:18:48.973Z,68.87
2018-05-04T10:19:27.952Z,68.87
2018-05-04T10:20:27.940Z,69.54
2018-05-04T10:21:27.930Z,70.21
2018-05-04T10:22:27.926Z,70.50
2018-05-04T10:23:27.914Z,71.02
2018-05-04T10:24:48.917Z,69.68
2018-05-04T10:25:27.893Z,69.20
2018-05-04T10:26:27.893Z,69.58
2018-05-04T10:27:27.873Z,70.44
2018-05-04T10:28:27.868Z,69.10
2018-05-04T10:29:27.861Z,68.62
2018-05-04T10:30:48.855Z,68.33
2018-05-04T10:31:27.860Z,69.52
2018-05-04T10:32:27.826Z,69.62
2018-05-04T10:33:27.818Z,67.41
2018-05-04T10:34:27.810Z,66.64
2018-05-04T10:35:27.800Z,65.49
2018-05-04T10:36:48.836Z,64.05
2018-05-04T10:37:27.780Z,65.20
2018-05-04T10:38:27.836Z,66.45
2018-05-04T10:39:27.766Z,67.22
2018-05-04T10:40:27.761Z,68.46
2018-05-04T10:41:27.755Z,68.50
2018-05-04T10:42:48.753Z,68.40
2018-05-04T10:43:27.739Z,71.09
2018-05-04T10:44:27.731Z,69.93
2018-05-04T10:45:27.717Z,68.40
2018-05-04T10:46:27.707Z,68.44
2018-05-04T10:47:27.703Z,68.34
2018-05-04T10:48:48.700Z,64.89
2018-05-04T10:49:27.686Z,64.31
2018-05-04T10:50:27.676Z,65.84
2018-05-04T10:51:27.665Z,65.08
2018-05-04T10:52:27.657Z,65.84
2018-05-04T10:53:27.648Z,69.30
2018-05-04T10:54:48.646Z,70.39
2018-05-04T10:55:27.634Z,69.62
2018-05-04T10:56:27.628Z,65.69
2018-05-04T10:57:27.625Z,61.94
2018-05-04T10:58:27.613Z,63.28
2018-05-04T10:59:27.603Z,62.99
2018-05-04T11:00:48.609Z,61.55
2018-05-04T11:01:27.603Z,62.13
2018-05-04T11:02:27.585Z,62.32
2018-05-04T11:03:27.574Z,64.53
2018-05-04T11:04:27.564Z,64.72
2018-05-04T11:05:27.618Z,64.43
2018-05-04T11:06:48.551Z,62.64
2018-05-04T11:07:27.536Z,64.18
2018-05-04T11:08:27.528Z,64.09
2018-05-04T11:09:27.524Z,62.45
2018-05-04T11:10:27.522Z,61.40
2018-05-04T11:11:27.510Z,60.91
2018-05-04T11:12:48.518Z,62.45
2018-05-04T11:13:27.495Z,62.35
2018-05-04T11:14:27.487Z,61.40
2018-05-04T11:15:27.481Z,59.12
2018-05-04T11:16:27.479Z,58.92
2018-05-04T11:17:27.467Z,61.81
2018-05-04T11:18:48.465Z,61.14
2018-05-04T11:19:27.497Z,61.52
2018-05-04T11:20:27.448Z,59.41
2018-05-04T11:21:27.438Z,59.89
2018-05-04T11:22:27.436Z,58.35
2018-05-04T11:23:27.426Z,60.66
2018-05-04T11:24:48.420Z,59.79
2018-05-04T11:25:27.480Z,59.50
2018-05-04T11:26:27.423Z,62.00
2018-05-04T11:27:27.394Z,59.41
2018-05-04T11:28:27.388Z,58.15
2018-05-04T11:29:27.384Z,59.12
2018-05-04T11:30:48.433Z,58.25
2018-05-04T11:31:27.368Z,58.18
2018-05-04T11:32:27.360Z,58.25
2018-05-04T11:33:27.351Z,58.06
2018-05-04T11:34:27.343Z,57.22
2018-05-04T11:35:27.341Z,58.86
2018-05-04T11:36:48.340Z,57.99
2018-05-04T11:37:27.328Z,57.03
2018-05-04T11:38:27.322Z,57.13
2018-05-04T11:39:27.323Z,56.43
2018-05-04T11:40:27.307Z,56.84
2018-05-04T11:41:27.295Z,56.16
2018-05-04T11:42:48.303Z,56.74
2018-05-04T11:43:27.293Z,57.90
2018-05-04T11:44:27.278Z,58.86
2018-05-04T11:45:27.266Z,58.57
2018-05-04T11:46:27.266Z,58.18
2018-05-04T11:47:27.248Z,59.41
2018-05-04T11:48:48.248Z,59.24
2018-05-04T11:49:27.243Z,58.76
2018-05-04T11:50:27.246Z,59.53
2018-05-04T11:51:27.236Z,60.59
2018-05-04T11:52:27.241Z,59.44
2018-05-04T11:53:27.219Z,58.02
2018-05-04T11:54:48.216Z,59.27
2018-05-04T11:55:27.204Z,57.73
2018-05-04T11:56:27.202Z,57.15
2018-05-04T11:57:27.188Z,58.22
2018-05-04T11:58:27.192Z,57.35
2018-05-04T11:59:27.179Z,56.87
2018-05-04T12:00:48.183Z,56.96
2018-05-04T12:01:27.164Z,56.20
2018-05-04T12:02:27.193Z,57.35
2018-05-04T12:03:27.147Z,59.17
2018-05-04T12:04:27.146Z,56.87
2018-05-04T12:05:27.139Z,56.38
2018-05-04T12:06:48.133Z,56.58
2018-05-04T12:07:27.124Z,56.20
2018-05-04T12:08:27.119Z,56.87
2018-05-04T12:09:27.103Z,57.09
2018-05-04T12:10:27.104Z,55.93
2018-05-04T12:11:27.098Z,55.13
2018-05-04T12:12:48.095Z,55.13
2018-05-04T12:13:27.079Z,56.20
2018-05-04T12:14:27.085Z,57.09
2018-05-04T12:15:27.068Z,56.70
2018-05-04T12:16:27.064Z,56.22
2018-05-04T12:17:27.057Z,56.60
2018-05-04T12:18:48.055Z,55.65
2018-05-04T12:19:27.047Z,54.78
2018-05-04T12:20:27.040Z,55.16
2018-05-04T12:21:27.029Z,54.78
2018-05-04T12:22:27.029Z,55.81
2018-05-04T12:23:27.017Z,55.23
2018-05-04T12:24:48.021Z,55.07
2018-05-04T12:25:27.009Z,56.12
2018-05-04T12:26:27.002Z,54.97
2018-05-04T12:27:26.998Z,55.45
2018-05-04T12:28:26.989Z,55.33
2018-05-04T12:29:26.979Z,54.87
2018-05-04T12:30:47.974Z,54.27
2018-05-04T12:31:26.975Z,53.91
2018-05-04T12:32:26.958Z,55.23
2018-05-04T12:33:26.957Z,56.32
2018-05-04T12:34:26.953Z,55.26
2018-05-04T12:35:26.940Z,54.97
2018-05-04T12:36:47.948Z,54.97
2018-05-04T12:37:26.931Z,54.78
2018-05-04T12:38:26.936Z,53.98
2018-05-04T12:39:26.911Z,53.91
2018-05-04T12:40:26.904Z,53.98
2018-05-04T12:41:26.904Z,53.81
2018-05-04T12:42:47.902Z,54.36
2018-05-04T12:43:26.886Z,54.20
2018-05-04T12:44:26.884Z,52.85
2018-05-04T12:45:26.886Z,53.53
2018-05-04T12:46:26.868Z,54.49
2018-05-04T12:47:26.862Z,56.03
2018-05-04T12:48:47.875Z,54.97
2018-05-04T12:49:26.855Z,55.45
2018-05-04T12:50:26.848Z,55.35
2018-05-04T12:51:26.847Z,55.90
2018-05-04T12:52:26.835Z,55.90